Terminal Aerodrome Forecast
Issued by NWS

Home | Current Version | Previous Version | Text Only | Print | Product List | Glossary On
Versions: 1 2 3 4 5 6 7 8 9 10 11 12 13 14 15 16 17 18 19 20 21 22 23 24 25 26 27 28 29 30 31 32 33 34 35 36 37 38 39 40 41 42 43 44 45 46 47 48 49 50
000
FTUS46 KMTR 251206 AAA
TAFSFO
TAF AMD
KSFO 251206Z 2512/2618 14008KT P6SM FEW120 BKN150
     FM251500 16014KT P6SM VCSH FEW014 BKN050 OVC100
     FM251800 17014G23KT 6SM -SHRA BR SCT014 SCT025 OVC050
     FM252100 19014G20KT 5SM -SHRA BR BKN014 OVC025
     FM252300 24012KT 5SM -SHRA BR BKN014 OVC025
     FM260200 27010KT P6SM VCSH BKN015 OVC025
     FM260700 29008KT P6SM SCT012 BKN025 OVC050
     FM261200 VRB04KT P6SM SCT025 OVC050=

USA.gov is the U.S. government's official web portal to all federal, state and local government web resources and services.